Time;durP1;ratioP1;P1;durP2;ratioP2;P2;SDS_P1;SDS_P2;PMS_P1;PMS_P2;Temp;Humidity;BMP_temperature;BMP_pressure;BME280_temperature;BME280_humidity;BME280_pressure;Samples;Min_cycle;Max_cycle;Signal;HPM_P1;HPM_P2
2022/09/29 00:01:01;;;;;;;;;;;8.70;99.90;;;;;;5028534;28;20344;-64
2022/09/29 00:03:26;;;;;;;;;;;8.80;99.90;;;;;;5027276;28;19929;-64
2022/09/29 00:05:53;;;;;;;;;;;8.70;99.90;;;;;;5011640;28;19932;-64
2022/09/29 00:08:20;;;;;;;;;;;8.70;99.90;;;;;;5029158;28;19925;-64
2022/09/29 00:10:45;;;;;;;;;;;8.70;99.90;;;;;;5027966;28;20039;-64
2022/09/29 00:13:11;;;;;;;;;;;8.70;99.90;;;;;;5028075;28;20048;-64
2022/09/29 00:15:37;;;;;;;;;;;8.70;99.90;;;;;;5028895;28;19932;-64
2022/09/29 00:18:03;;;;;;;;;;;8.70;99.90;;;;;;5028157;28;19925;-65
2022/09/29 00:20:29;;;;;;;;;;;8.60;99.90;;;;;;5027600;28;19975;-64
2022/09/29 00:22:54;;;;;;;;;;;8.70;99.90;;;;;;5029133;28;19996;-64
2022/09/29 00:25:20;;;;;;;;;;;8.70;99.90;;;;;;5011414;28;19932;-65
2022/09/29 00:27:46;;;;;;;;;;;8.60;99.90;;;;;;5028430;28;19989;-64
2022/09/29 00:30:12;;;;;;;;;;;8.70;99.90;;;;;;5029060;28;19932;-64
2022/09/29 00:32:38;;;;;;;;;;;8.60;99.90;;;;;;5027705;28;19920;-64
2022/09/29 00:35:03;;;;;;;;;;;8.70;99.90;;;;;;5028880;28;20423;-64
2022/09/29 00:37:29;;;;;;;;;;;8.60;99.90;;;;;;5028467;28;19933;-64
2022/09/29 00:39:55;;;;;;;;;;;8.60;99.90;;;;;;5027835;28;19932;-64
2022/09/29 00:42:21;;;;;;;;;;;8.60;99.90;;;;;;5027746;28;19929;-68
2022/09/29 00:45:01;;;;;;;;;;;8.60;99.90;;;;;;5028755;28;19925;-68
2022/09/29 00:47:28;;;;;;;;;;;8.50;99.90;;;;;;5027519;28;19930;-63
2022/09/29 00:49:56;;;;;;;;;;;8.50;99.90;;;;;;5028701;28;19950;-65
2022/09/29 00:52:25;;;;;;;;;;;8.50;99.90;;;;;;5027404;28;19925;-66
2022/09/29 00:54:54;;;;;;;;;;;8.50;99.90;;;;;;5028684;28;19977;-64
2022/09/29 00:57:22;;;;;;;;;;;8.50;99.90;;;;;;5027562;28;19926;-65
2022/09/29 00:59:53;;;;;;;;;;;8.50;99.90;;;;;;5027517;28;20004;-65
2022/09/29 01:02:20;;;;;;;;;;;8.40;99.90;;;;;;5027591;28;19926;-64
2022/09/29 01:04:46;;;;;;;;;;;8.40;99.90;;;;;;5028331;28;19937;-65
2022/09/29 01:07:13;;;;;;;;;;;8.40;99.90;;;;;;5030181;28;19948;-65
2022/09/29 01:09:39;;;;;;;;;;;8.40;99.90;;;;;;5031886;28;19947;-66
2022/09/29 01:12:07;;;;;;;;;;;8.40;99.90;;;;;;5031970;28;19925;-65
2022/09/29 01:14:34;;;;;;;;;;;8.30;99.90;;;;;;5029973;28;19925;-64
2022/09/29 01:17:00;;;;;;;;;;;8.30;99.90;;;;;;5030884;28;20029;-65
2022/09/29 01:19:31;;;;;;;;;;;8.30;99.90;;;;;;5030826;28;20428;-68
2022/09/29 01:21:57;;;;;;;;;;;8.30;99.90;;;;;;5031517;28;20017;-65
2022/09/29 01:24:40;;;;;;;;;;;8.30;99.90;;;;;;5030842;28;20369;-63
2022/09/29 01:27:15;;;;;;;;;;;8.30;99.90;;;;;;5031772;28;20009;-65
2022/09/29 01:29:56;;;;;;;;;;;8.30;99.90;;;;;;5030390;28;19932;-64
2022/09/29 01:32:36;;;;;;;;;;;8.30;99.90;;;;;;5031652;28;20021;-64
2022/09/29 01:35:15;;;;;;;;;;;8.30;99.90;;;;;;5030798;28;19985;-65
2022/09/29 01:37:43;;;;;;;;;;;8.30;99.90;;;;;;5030050;28;20333;-64
2022/09/29 01:40:14;;;;;;;;;;;8.30;99.90;;;;;;5029470;28;19929;-68
2022/09/29 01:42:42;;;;;;;;;;;8.30;99.90;;;;;;5031123;28;19951;-68
2022/09/29 01:45:14;;;;;;;;;;;8.30;99.90;;;;;;5030049;28;20447;-68
2022/09/29 01:47:51;;;;;;;;;;;8.20;99.90;;;;;;5030922;28;19948;-68
2022/09/29 01:50:20;;;;;;;;;;;8.20;99.90;;;;;;5030261;28;19991;-68
2022/09/29 01:52:48;;;;;;;;;;;8.20;99.90;;;;;;5030128;28;19933;-68
2022/09/29 01:55:18;;;;;;;;;;;8.20;99.90;;;;;;5031150;28;19990;-68
2022/09/29 01:57:46;;;;;;;;;;;8.20;99.90;;;;;;5030887;28;19925;-69
2022/09/29 02:00:13;;;;;;;;;;;8.20;99.90;;;;;;5029934;28;20379;-70
2022/09/29 02:02:45;;;;;;;;;;;8.20;99.90;;;;;;5029437;28;19934;-68
2022/09/29 02:05:20;;;;;;;;;;;8.10;99.90;;;;;;5030248;28;19925;-68
2022/09/29 02:07:46;;;;;;;;;;;8.10;99.90;;;;;;5029680;28;19981;-68
2022/09/29 02:10:15;;;;;;;;;;;8.10;99.90;;;;;;5029989;28;20016;-68
2022/09/29 02:12:43;;;;;;;;;;;8.10;99.90;;;;;;5030356;28;19932;-68
2022/09/29 02:15:11;;;;;;;;;;;8.10;99.90;;;;;;5031143;28;20020;-68
2022/09/29 02:17:39;;;;;;;;;;;8.00;99.90;;;;;;5029938;28;20342;-68
2022/09/29 02:20:05;;;;;;;;;;;8.10;99.90;;;;;;5028907;28;20340;-68
2022/09/29 02:22:31;;;;;;;;;;;8.00;99.90;;;;;;4996967;28;19945;-68
2022/09/29 02:25:00;;;;;;;;;;;8.00;99.90;;;;;;5028754;28;19925;-67
2022/09/29 02:27:28;;;;;;;;;;;8.00;99.90;;;;;;5029747;28;20065;-69
2022/09/29 02:29:54;;;;;;;;;;;8.00;99.90;;;;;;5029063;28;20049;-68
2022/09/29 02:32:20;;;;;;;;;;;8.00;99.90;;;;;;5030705;28;20264;-69
2022/09/29 02:34:48;;;;;;;;;;;7.90;99.90;;;;;;5030235;28;19936;-69
2022/09/29 02:37:13;;;;;;;;;;;7.90;99.90;;;;;;5029512;28;20050;-69
2022/09/29 02:39:54;;;;;;;;;;;7.90;99.90;;;;;;5029280;28;20322;-72
2022/09/29 02:42:34;;;;;;;;;;;8.10;99.90;;;;;;5029551;28;19973;-69
2022/09/29 02:45:18;;;;;;;;;;;7.90;99.90;;;;;;5029025;28;19921;-68
2022/09/29 02:48:03;;;;;;;;;;;7.80;99.90;;;;;;5028745;28;20016;-69
2022/09/29 02:50:43;;;;;;;;;;;7.80;99.90;;;;;;5029354;28;19986;-69
2022/09/29 02:53:09;;;;;;;;;;;7.80;99.90;;;;;;5030277;28;20228;-69
2022/09/29 02:55:43;;;;;;;;;;;7.70;99.90;;;;;;5012448;28;19978;-69
2022/09/29 02:58:19;;;;;;;;;;;7.80;99.90;;;;;;5029357;28;20391;-68
2022/09/29 03:00:46;;;;;;;;;;;7.70;99.90;;;;;;5028832;28;19987;-68
2022/09/29 03:03:11;;;;;;;;;;;7.80;99.90;;;;;;5011968;28;20389;-68
2022/09/29 03:05:37;;;;;;;;;;;7.70;99.90;;;;;;5029077;28;19929;-68
2022/09/29 03:08:02;;;;;;;;;;;7.70;99.90;;;;;;5028623;28;19998;-67
2022/09/29 03:10:28;;;;;;;;;;;7.70;99.90;;;;;;5029010;28;19927;-69
2022/09/29 03:12:53;;;;;;;;;;;7.70;99.90;;;;;;5011673;28;20005;-67
2022/09/29 03:15:20;;;;;;;;;;;7.70;99.90;;;;;;5012449;28;19932;-68
2022/09/29 03:17:45;;;;;;;;;;;7.60;99.90;;;;;;5028631;28;19951;-71
2022/09/29 03:20:11;;;;;;;;;;;7.60;99.90;;;;;;5028773;28;20392;-67
2022/09/29 03:22:36;;;;;;;;;;;7.60;99.90;;;;;;5029071;28;19926;-72
2022/09/29 03:25:04;;;;;;;;;;;7.60;99.90;;;;;;5029672;28;19979;-68
2022/09/29 03:27:30;;;;;;;;;;;7.60;99.90;;;;;;5028542;28;19973;-68
2022/09/29 03:29:56;;;;;;;;;;;7.60;99.90;;;;;;5027335;28;19983;-68
2022/09/29 03:32:21;;;;;;;;;;;7.60;99.90;;;;;;5029475;28;20371;-68
2022/09/29 03:34:47;;;;;;;;;;;7.50;99.90;;;;;;5011701;28;19925;-71
2022/09/29 03:37:13;;;;;;;;;;;7.60;99.90;;;;;;5028637;28;19933;-68
2022/09/29 03:39:38;;;;;;;;;;;7.60;99.90;;;;;;5029540;28;20331;-67
2022/09/29 03:42:04;;;;;;;;;;;7.50;99.90;;;;;;5028041;28;19925;-68
2022/09/29 03:44:29;;;;;;;;;;;7.50;99.90;;;;;;5012142;28;19931;-68
2022/09/29 03:46:55;;;;;;;;;;;7.60;99.90;;;;;;5011699;28;19933;-67
2022/09/29 03:49:20;;;;;;;;;;;7.60;99.90;;;;;;5012115;28;19950;-67
2022/09/29 03:51:47;;;;;;;;;;;7.50;99.90;;;;;;5029230;28;19932;-68
2022/09/29 03:54:12;;;;;;;;;;;7.50;99.90;;;;;;5011189;28;20283;-68
2022/09/29 03:56:38;;;;;;;;;;;7.40;99.90;;;;;;5029364;28;19932;-68
2022/09/29 03:59:07;;;;;;;;;;;7.50;99.90;;;;;;5027662;28;20403;-69
2022/09/29 04:01:33;;;;;;;;;;;7.50;99.90;;;;;;5011213;28;20378;-67
2022/09/29 04:03:58;;;;;;;;;;;7.40;99.90;;;;;;5028406;28;19968;-68
2022/09/29 04:06:24;;;;;;;;;;;7.50;99.90;;;;;;5028225;28;19985;-67
2022/09/29 04:08:49;;;;;;;;;;;7.50;99.90;;;;;;5029026;28;19925;-68
2022/09/29 04:11:15;;;;;;;;;;;7.40;99.90;;;;;;5027552;28;19929;-68
2022/09/29 04:13:41;;;;;;;;;;;7.40;99.90;;;;;;5027768;28;19925;-67
2022/09/29 04:16:07;;;;;;;;;;;7.40;99.90;;;;;;5027435;28;19925;-67
2022/09/29 04:18:32;;;;;;;;;;;7.40;99.90;;;;;;5011521;28;19929;-67
2022/09/29 04:20:59;;;;;;;;;;;7.40;99.90;;;;;;5011284;28;19925;-67
2022/09/29 04:23:29;;;;;;;;;;;7.40;99.90;;;;;;5029050;28;19932;-67
2022/09/29 04:25:55;;;;;;;;;;;7.40;99.90;;;;;;5027467;28;19929;-70
2022/09/29 04:28:21;;;;;;;;;;;7.40;99.90;;;;;;5027680;28;20011;-68
2022/09/29 04:30:46;;;;;;;;;;;7.40;99.90;;;;;;5028852;28;19998;-67
2022/09/29 04:33:12;;;;;;;;;;;7.40;99.90;;;;;;5027223;28;19970;-67
2022/09/29 04:35:37;;;;;;;;;;;7.40;99.90;;;;;;5011528;28;19925;-67
2022/09/29 04:38:03;;;;;;;;;;;7.30;99.90;;;;;;5027545;28;20284;-68
2022/09/29 04:40:29;;;;;;;;;;;7.30;99.90;;;;;;5027731;28;20009;-68
2022/09/29 04:42:54;;;;;;;;;;;7.30;99.90;;;;;;5031635;28;19925;-68
2022/09/29 04:45:20;;;;;;;;;;;7.30;99.90;;;;;;5032090;28;19925;-68
2022/09/29 04:47:46;;;;;;;;;;;7.30;99.90;;;;;;5031150;28;20020;-68
2022/09/29 04:50:11;;;;;;;;;;;7.30;99.90;;;;;;5030916;28;19925;-69
2022/09/29 04:52:42;;;;;;;;;;;7.30;99.90;;;;;;5031967;28;20512;-68
2022/09/29 04:55:10;;;;;;;;;;;7.30;99.90;;;;;;5030856;28;20535;-69
2022/09/29 04:57:36;;;;;;;;;;;7.30;99.90;;;;;;5030966;28;20021;-68
2022/09/29 05:00:03;;;;;;;;;;;7.30;99.90;;;;;;5030526;28;19929;-69
2022/09/29 05:02:28;;;;;;;;;;;7.30;99.90;;;;;;5030806;28;20256;-68
2022/09/29 05:04:54;;;;;;;;;;;7.30;99.90;;;;;;5030681;28;19932;-68
2022/09/29 05:07:19;;;;;;;;;;;7.30;99.90;;;;;;5031760;28;19977;-68
2022/09/29 05:09:45;;;;;;;;;;;7.30;99.90;;;;;;5031134;28;19933;-70
2022/09/29 05:12:10;;;;;;;;;;;7.30;99.90;;;;;;5030069;28;19925;-70
2022/09/29 05:14:36;;;;;;;;;;;7.30;99.90;;;;;;5031110;28;19940;-68
2022/09/29 05:17:02;;;;;;;;;;;7.30;99.90;;;;;;5031403;28;19984;-72
2022/09/29 05:19:28;;;;;;;;;;;7.30;99.90;;;;;;5031286;28;20387;-66
2022/09/29 05:21:53;;;;;;;;;;;7.20;99.90;;;;;;5030485;28;19925;-67
2022/09/29 05:24:19;;;;;;;;;;;7.20;99.90;;;;;;5030596;28;19933;-67
2022/09/29 05:26:44;;;;;;;;;;;7.20;99.90;;;;;;5030323;28;19931;-69
2022/09/29 05:29:10;;;;;;;;;;;7.20;99.90;;;;;;5029766;28;19929;-70
2022/09/29 05:31:36;;;;;;;;;;;7.20;99.90;;;;;;5031153;28;19978;-67
2022/09/29 05:34:01;;;;;;;;;;;7.20;99.90;;;;;;5030207;28;19955;-67
2022/09/29 05:36:27;;;;;;;;;;;7.20;99.90;;;;;;5029763;28;19940;-67
2022/09/29 05:38:52;;;;;;;;;;;7.20;99.90;;;;;;5030487;28;19980;-67
2022/09/29 05:41:21;;;;;;;;;;;7.20;99.90;;;;;;5030754;28;20427;-67
2022/09/29 05:43:47;;;;;;;;;;;7.20;99.90;;;;;;5030436;28;20274;-67
2022/09/29 05:46:13;;;;;;;;;;;7.20;99.90;;;;;;5030863;28;20288;-67
2022/09/29 05:48:39;;;;;;;;;;;7.20;99.90;;;;;;5030313;28;19981;-66
2022/09/29 05:51:06;;;;;;;;;;;7.20;99.90;;;;;;5030231;28;19926;-68
2022/09/29 05:53:32;;;;;;;;;;;7.20;99.90;;;;;;5028387;28;19929;-67
2022/09/29 05:55:58;;;;;;;;;;;7.20;99.90;;;;;;5014596;28;20012;-69
2022/09/29 05:58:24;;;;;;;;;;;7.20;99.90;;;;;;5030419;28;19925;-66
2022/09/29 06:00:49;;;;;;;;;;;7.20;99.90;;;;;;5030250;28;20003;-65
2022/09/29 06:03:15;;;;;;;;;;;7.20;99.90;;;;;;5029312;28;19952;-65
2022/09/29 06:05:41;;;;;;;;;;;7.30;99.90;;;;;;5013343;28;20026;-65
2022/09/29 06:08:06;;;;;;;;;;;7.30;99.90;;;;;;4997211;28;20402;-67
2022/09/29 06:10:32;;;;;;;;;;;7.30;99.90;;;;;;5028903;28;19932;-65
2022/09/29 06:12:58;;;;;;;;;;;7.40;99.90;;;;;;5013569;28;20435;-65
2022/09/29 06:15:24;;;;;;;;;;;7.40;99.90;;;;;;5029517;28;20054;-65
2022/09/29 06:18:00;;;;;;;;;;;7.40;99.90;;;;;;5013657;28;20386;-64
2022/09/29 06:20:25;;;;;;;;;;;7.40;99.90;;;;;;5030637;28;19950;-65
2022/09/29 06:22:55;;;;;;;;;;;7.40;99.90;;;;;;5030023;28;19926;-65
2022/09/29 06:25:21;;;;;;;;;;;7.40;99.90;;;;;;5029170;28;20421;-66
2022/09/29 06:27:46;;;;;;;;;;;7.40;99.90;;;;;;5029487;28;19925;-65
2022/09/29 06:30:12;;;;;;;;;;;7.40;99.90;;;;;;5046361;28;19925;-71
2022/09/29 06:32:38;;;;;;;;;;;7.50;99.90;;;;;;5012825;28;20391;-64
2022/09/29 06:37:49;;;;;;;;;;;7.60;99.90;;;;;;5029815;28;20402;-64
2022/09/29 06:40:15;;;;;;;;;;;7.60;99.90;;;;;;5029283;28;19948;-69
2022/09/29 06:42:40;;;;;;;;;;;7.70;99.90;;;;;;5030523;28;19926;-65
2022/09/29 06:45:06;;;;;;;;;;;7.80;99.90;;;;;;5013015;28;19929;-65
2022/09/29 06:47:32;;;;;;;;;;;7.80;99.90;;;;;;5030051;28;19926;-65
2022/09/29 06:50:00;;;;;;;;;;;7.90;99.90;;;;;;5029612;28;19931;-64
2022/09/29 06:52:26;;;;;;;;;;;8.00;99.90;;;;;;5029292;28;19929;-64
2022/09/29 06:54:52;;;;;;;;;;;8.00;99.90;;;;;;5030331;28;19925;-64
2022/09/29 06:57:18;;;;;;;;;;;8.00;99.90;;;;;;5028775;28;19925;-68
2022/09/29 06:59:44;;;;;;;;;;;8.00;99.90;;;;;;5029824;28;19955;-65
2022/09/29 07:02:10;;;;;;;;;;;8.10;99.90;;;;;;5029236;28;19925;-66
2022/09/29 07:04:36;;;;;;;;;;;8.10;99.90;;;;;;5028477;28;19936;-65
2022/09/29 07:07:01;;;;;;;;;;;8.40;99.90;;;;;;5030016;28;19925;-65
2022/09/29 07:09:27;;;;;;;;;;;8.20;99.90;;;;;;5028410;28;19938;-66
2022/09/29 07:11:52;;;;;;;;;;;8.30;99.90;;;;;;5029119;28;19985;-65
2022/09/29 07:14:21;;;;;;;;;;;8.50;99.90;;;;;;5012024;28;20368;-68
2022/09/29 07:16:47;;;;;;;;;;;8.70;99.90;;;;;;5029859;28;19968;-66
2022/09/29 07:19:13;;;;;;;;;;;9.20;99.90;;;;;;5029817;28;19925;-65
2022/09/29 07:21:39;;;;;;;;;;;9.40;99.90;;;;;;5028680;28;19925;-65
2022/09/29 07:24:04;;;;;;;;;;;9.60;99.90;;;;;;5030137;28;19978;-65
2022/09/29 07:26:30;;;;;;;;;;;9.60;99.90;;;;;;5012107;28;19925;-66
2022/09/29 07:28:56;;;;;;;;;;;9.70;99.90;;;;;;5028652;28;19932;-66
2022/09/29 07:31:21;;;;;;;;;;;9.80;99.90;;;;;;5028521;28;19925;-69
2022/09/29 07:33:48;;;;;;;;;;;9.80;99.90;;;;;;5029413;28;19929;-65
2022/09/29 07:36:14;;;;;;;;;;;10.00;99.90;;;;;;5029094;28;19932;-66
2022/09/29 07:38:40;;;;;;;;;;;10.20;99.90;;;;;;5012117;28;19932;-65
2022/09/29 07:41:08;;;;;;;;;;;10.80;99.90;;;;;;5028904;28;19929;-65
2022/09/29 07:43:33;;;;;;;;;;;11.90;99.90;;;;;;5029601;28;19984;-65
2022/09/29 07:45:59;;;;;;;;;;;13.10;99.90;;;;;;5028565;28;19969;-64
2022/09/29 07:48:25;;;;;;;;;;;14.20;99.90;;;;;;5028587;28;20336;-68
2022/09/29 07:50:51;;;;;;;;;;;15.20;99.90;;;;;;5028550;28;19925;-66
2022/09/29 07:53:17;;;;;;;;;;;16.10;99.90;;;;;;5028398;28;19925;-66
2022/09/29 07:55:42;;;;;;;;;;;16.90;99.90;;;;;;5027706;28;19932;-65
2022/09/29 07:58:08;;;;;;;;;;;17.60;99.90;;;;;;5011641;28;20017;-65
2022/09/29 08:00:34;;;;;;;;;;;18.30;99.90;;;;;;5028041;28;19926;-65
2022/09/29 08:03:01;;;;;;;;;;;18.80;99.90;;;;;;5028045;28;19980;-65
2022/09/29 08:05:27;;;;;;;;;;;;;;;;;;5028077;28;19935;-67
2022/09/29 08:07:52;;;;;;;;;;;19.20;99.90;;;;;;5028264;28;20016;-65
2022/09/29 08:10:18;;;;;;;;;;;20.30;98.90;;;;;;5028311;28;19983;-64
2022/09/29 08:12:44;;;;;;;;;;;20.80;98.70;;;;;;5028984;28;19929;-65
2022/09/29 08:15:09;;;;;;;;;;;21.20;99.00;;;;;;5028100;28;19925;-65
2022/09/29 08:17:35;;;;;;;;;;;21.50;97.20;;;;;;5027073;28;20452;-64
2022/09/29 08:20:00;;;;;;;;;;;21.70;97.10;;;;;;5026463;28;19947;-67
2022/09/29 08:22:26;;;;;;;;;;;21.80;96.20;;;;;;5027207;28;19982;-67
2022/09/29 08:24:51;;;;;;;;;;;22.10;95.80;;;;;;5023897;28;19931;-66
2022/09/29 08:27:17;;;;;;;;;;;22.20;96.00;;;;;;5009381;28;19933;-65
2022/09/29 08:29:43;;;;;;;;;;;22.50;95.80;;;;;;5025177;28;20034;-65
2022/09/29 08:32:08;;;;;;;;;;;22.80;95.40;;;;;;5027304;28;19973;-65
2022/09/29 08:34:35;;;;;;;;;;;23.00;95.20;;;;;;5028474;28;19925;-65
2022/09/29 08:37:01;;;;;;;;;;;23.10;95.30;;;;;;5027688;28;19928;-65
2022/09/29 08:39:27;;;;;;;;;;;23.20;95.10;;;;;;5028595;28;19921;-65
2022/09/29 08:41:56;;;;;;;;;;;23.20;94.90;;;;;;5028219;28;19917;-65
2022/09/29 08:44:40;;;;;;;;;;;23.20;94.30;;;;;;5028717;28;19921;-65
2022/09/29 08:47:24;;;;;;;;;;;23.30;94.90;;;;;;5028777;28;19949;-65
2022/09/29 08:49:53;;;;;;;;;;;23.40;94.00;;;;;;5023520;28;20360;-65
2022/09/29 08:52:21;;;;;;;;;;;23.50;94.60;;;;;;5022457;28;20007;-65
2022/09/29 08:54:49;;;;;;;;;;;23.60;94.00;;;;;;5009940;28;19921;-63
2022/09/29 08:57:17;;;;;;;;;;;23.80;94.10;;;;;;5027418;28;19944;-64
2022/09/29 08:59:46;;;;;;;;;;;23.80;93.60;;;;;;5026929;28;19921;-64
2022/09/29 09:02:30;;;;;;;;;;;23.00;93.60;;;;;;5026690;28;19921;-65
2022/09/29 09:04:59;;;;;;;;;;;22.20;94.10;;;;;;5026985;28;20015;-65
2022/09/29 09:07:31;;;;;;;;;;;21.10;95.10;;;;;;5011264;28;20364;-65
2022/09/29 09:10:03;;;;;;;;;;;20.20;96.00;;;;;;5027156;28;19921;-65
2022/09/29 09:12:47;;;;;;;;;;;19.60;96.70;;;;;;5027416;28;19928;-66
2022/09/29 09:15:28;;;;;;;;;;;19.10;97.70;;;;;;5027524;28;19928;-64
2022/09/29 09:17:54;;;;;;;;;;;18.60;98.30;;;;;;5028262;28;19921;-64
2022/09/29 09:20:34;;;;;;;;;;;18.20;99.00;;;;;;5028502;28;20057;-65
2022/09/29 09:23:05;;;;;;;;;;;18.00;99.90;;;;;;5027990;28;20328;-63
2022/09/29 09:25:34;;;;;;;;;;;17.90;99.90;;;;;;5026873;28;19928;-64
2022/09/29 09:28:21;;;;;;;;;;;17.90;99.90;;;;;;5026919;28;19977;-64
2022/09/29 09:30:49;;;;;;;;;;;17.70;99.90;;;;;;5030833;28;20375;-74
2022/09/29 09:33:30;;;;;;;;;;;17.60;99.90;;;;;;5030618;28;20275;-71
2022/09/29 09:36:02;;;;;;;;;;;17.40;99.90;;;;;;5030482;28;19972;-72
2022/09/29 09:38:37;;;;;;;;;;;17.40;99.90;;;;;;5030265;28;20004;-72
2022/09/29 09:41:03;;;;;;;;;;;17.30;99.90;;;;;;5030212;28;19970;-72
2022/09/29 09:43:28;;;;;;;;;;;17.30;99.90;;;;;;5030393;28;19921;-72
2022/09/29 09:46:02;;;;;;;;;;;17.20;99.90;;;;;;5013798;28;19973;-74
2022/09/29 09:48:31;;;;;;;;;;;17.20;99.90;;;;;;5031430;28;19947;-73
2022/09/29 09:50:59;;;;;;;;;;;17.20;99.90;;;;;;5029585;28;19921;-73
2022/09/29 09:53:28;;;;;;;;;;;17.10;99.90;;;;;;5030346;28;20291;-72
2022/09/29 09:56:02;;;;;;;;;;;17.00;99.90;;;;;;5029661;28;20003;-72
2022/09/29 09:58:27;;;;;;;;;;;17.00;99.90;;;;;;5031288;28;20019;-72
2022/09/29 10:00:55;;;;;;;;;;;16.90;99.90;;;;;;5029971;28;19968;-71
2022/09/29 10:03:21;;;;;;;;;;;16.90;99.90;;;;;;5029825;28;19921;-73
2022/09/29 10:05:47;;;;;;;;;;;16.90;99.90;;;;;;5030802;28;20011;-73
2022/09/29 10:08:24;;;;;;;;;;;16.90;99.90;;;;;;5030302;28;19928;-72
2022/09/29 10:10:50;;;;;;;;;;;16.90;99.90;;;;;;5029790;28;19920;-72
2022/09/29 10:13:15;;;;;;;;;;;16.80;99.90;;;;;;5030763;28;20001;-71
2022/09/29 10:15:44;;;;;;;;;;;16.80;99.90;;;;;;5013569;28;19971;-71
2022/09/29 10:18:22;;;;;;;;;;;16.70;99.90;;;;;;5029679;28;20015;-73
2022/09/29 10:20:48;;;;;;;;;;;16.80;99.90;;;;;;5029738;28;19921;-74
2022/09/29 10:23:27;;;;;;;;;;;16.80;99.90;;;;;;5030055;28;19928;-76
2022/09/29 10:26:08;;;;;;;;;;;16.90;99.90;;;;;;5029458;28;19921;-74
2022/09/29 10:28:41;;;;;;;;;;;17.00;99.90;;;;;;5029657;28;20008;-72
2022/09/29 10:31:30;;;;;;;;;;;17.10;99.90;;;;;;5028293;28;19921;-76
2022/09/29 10:33:57;;;;;;;;;;;17.20;99.90;;;;;;5006933;28;19921;-75
2022/09/29 10:36:25;;;;;;;;;;;17.30;99.80;;;;;;5029571;28;20021;-76
2022/09/29 10:38:51;;;;;;;;;;;17.30;99.90;;;;;;5030112;28;20065;-75
2022/09/29 10:41:18;;;;;;;;;;;17.30;99.90;;;;;;5028979;28;20015;-75
2022/09/29 10:43:45;;;;;;;;;;;17.20;99.40;;;;;;5030540;28;19921;-76
2022/09/29 10:46:30;;;;;;;;;;;17.20;99.70;;;;;;5029917;28;19925;-76
2022/09/29 10:49:08;;;;;;;;;;;17.20;99.10;;;;;;5029137;28;20017;-76
2022/09/29 10:51:34;;;;;;;;;;;17.20;99.00;;;;;;5030661;28;20007;-76
2022/09/29 10:54:06;;;;;;;;;;;17.20;99.10;;;;;;5029960;28;20008;-78
2022/09/29 10:56:31;;;;;;;;;;;17.20;99.50;;;;;;5029513;28;20015;-76
2022/09/29 10:58:58;;;;;;;;;;;17.30;99.40;;;;;;5028676;28;20142;-75
2022/09/29 11:01:25;;;;;;;;;;;17.30;98.80;;;;;;5030570;28;19921;-75
2022/09/29 11:03:53;;;;;;;;;;;17.30;99.10;;;;;;5029195;28;20093;-76
2022/09/29 11:06:24;;;;;;;;;;;17.30;99.60;;;;;;5028743;28;20125;-75
2022/09/29 11:09:01;;;;;;;;;;;17.40;98.80;;;;;;5029307;28;20278;-76
2022/09/29 11:11:31;;;;;;;;;;;17.50;98.70;;;;;;5029200;28;19925;-76
2022/09/29 11:13:58;;;;;;;;;;;17.70;98.80;;;;;;5028697;28;20286;-77
2022/09/29 11:16:31;;;;;;;;;;;17.80;98.30;;;;;;5029273;28;19921;-76
2022/09/29 11:19:16;;;;;;;;;;;17.90;97.90;;;;;;5024877;28;19916;-75
2022/09/29 11:21:42;;;;;;;;;;;18.00;98.10;;;;;;5023783;28;19970;-74
2022/09/29 11:24:19;;;;;;;;;;;18.10;98.40;;;;;;5027668;28;20328;-69
2022/09/29 11:26:49;;;;;;;;;;;18.10;98.20;;;;;;5029514;28;19966;-74
2022/09/29 11:29:24;;;;;;;;;;;18.00;98.10;;;;;;5029131;28;19927;-74
2022/09/29 11:32:13;;;;;;;;;;;17.70;98.70;;;;;;5028674;28;20298;-73
2022/09/29 11:34:57;;;;;;;;;;;17.40;98.50;;;;;;4993370;28;19956;-75
2022/09/29 11:37:27;;;;;;;;;;;17.00;98.80;;;;;;5028794;28;20351;-75
2022/09/29 11:40:12;;;;;;;;;;;16.80;99.10;;;;;;5028739;28;19921;-74
2022/09/29 11:42:48;;;;;;;;;;;16.60;99.10;;;;;;5028579;28;20004;-75
2022/09/29 11:45:17;;;;;;;;;;;16.50;98.80;;;;;;5029669;28;19921;-74
2022/09/29 11:48:12;;;;;;;;;;;16.40;98.60;;;;;;5025298;28;20010;-74
2022/09/29 11:50:43;;;;;;;;;;;16.40;99.10;;;;;;5029305;28;20087;-75
2022/09/29 11:53:32;;;;;;;;;;;16.50;99.30;;;;;;5027624;28;19921;-75
2022/09/29 11:56:04;;;;;;;;;;;16.70;98.40;;;;;;5004889;28;19932;-77
2022/09/29 11:58:56;;;;;;;;;;;16.90;98.40;;;;;;5029697;28;19928;-76
2022/09/29 12:01:29;;;;;;;;;;;17.10;97.30;;;;;;5008666;28;20382;-75
2022/09/29 12:04:20;;;;;;;;;;;17.30;97.80;;;;;;5029608;28;20351;-75
2022/09/29 12:06:46;;;;;;;;;;;17.60;97.90;;;;;;5026878;28;20367;-76
2022/09/29 12:09:22;;;;;;;;;;;17.70;96.50;;;;;;5027918;28;19920;-74
2022/09/29 12:12:03;;;;;;;;;;;17.90;96.00;;;;;;5028679;28;19921;-76
2022/09/29 12:14:37;;;;;;;;;;;17.90;95.60;;;;;;5028193;28;19921;-76
2022/09/29 12:17:07;;;;;;;;;;;18.00;96.30;;;;;;5029293;28;19928;-75
2022/09/29 12:19:36;;;;;;;;;;;17.90;95.40;;;;;;5029615;28;20020;-76
2022/09/29 12:22:06;;;;;;;;;;;17.90;95.90;;;;;;5028054;28;19960;-74
2022/09/29 12:24:37;;;;;;;;;;;17.70;96.80;;;;;;5028338;28;20359;-75
2022/09/29 12:27:05;;;;;;;;;;;17.60;97.40;;;;;;5026907;28;19936;-74
2022/09/29 12:29:37;;;;;;;;;;;17.50;97.80;;;;;;5025183;28;19917;-75
2022/09/29 12:32:20;;;;;;;;;;;17.40;98.20;;;;;;5028728;28;20283;-73
2022/09/29 12:34:50;;;;;;;;;;;17.30;98.50;;;;;;5026774;28;19932;-74
2022/09/29 12:37:19;;;;;;;;;;;17.20;98.50;;;;;;5027589;28;20410;-74
2022/09/29 12:39:45;;;;;;;;;;;17.10;98.50;;;;;;5029101;28;20028;-76
2022/09/29 12:42:17;;;;;;;;;;;17.10;98.40;;;;;;5027637;28;20263;-76
2022/09/29 12:44:49;;;;;;;;;;;17.10;98.10;;;;;;5029137;28;19921;-75
2022/09/29 12:47:21;;;;;;;;;;;17.10;97.50;;;;;;5027734;28;19925;-73
2022/09/29 12:49:54;;;;;;;;;;;17.00;97.40;;;;;;5028142;28;19927;-75
2022/09/29 12:52:23;;;;;;;;;;;17.00;97.40;;;;;;5026324;28;19917;-75
2022/09/29 12:54:51;;;;;;;;;;;16.90;97.80;;;;;;5024117;28;20267;-75
2022/09/29 12:57:21;;;;;;;;;;;16.80;98.10;;;;;;5008534;28;19921;-74
2022/09/29 13:00:06;;;;;;;;;;;16.70;98.40;;;;;;5024896;28;20081;-74
2022/09/29 13:02:44;;;;;;;;;;;16.60;98.80;;;;;;5026979;28;19921;-74
2022/09/29 13:05:28;;;;;;;;;;;16.50;99.10;;;;;;5030776;28;19973;-74
2022/09/29 13:08:12;;;;;;;;;;;16.40;99.40;;;;;;5014082;28;19928;-74
2022/09/29 13:10:44;;;;;;;;;;;16.30;99.90;;;;;;5031172;28;19943;-73
2022/09/29 13:13:24;;;;;;;;;;;16.30;99.90;;;;;;5030696;28;19931;-72
2022/09/29 13:16:05;;;;;;;;;;;16.20;99.90;;;;;;5031272;28;19921;-74
2022/09/29 13:18:49;;;;;;;;;;;16.20;99.90;;;;;;5031105;28;19925;-74
2022/09/29 13:21:24;;;;;;;;;;;16.10;99.90;;;;;;5030419;28;19924;-73
2022/09/29 13:24:16;;;;;;;;;;;16.10;99.90;;;;;;5030960;28;19929;-74
2022/09/29 13:27:02;;;;;;;;;;;16.10;99.90;;;;;;5032060;28;20008;-75
2022/09/29 13:29:29;;;;;;;;;;;16.10;99.90;;;;;;4990873;28;19921;-74
2022/09/29 13:31:55;;;;;;;;;;;16.10;99.90;;;;;;5032259;28;19921;-74
2022/09/29 13:34:29;;;;;;;;;;;16.10;99.90;;;;;;5014017;28;19977;-75
2022/09/29 13:37:04;;;;;;;;;;;16.10;99.90;;;;;;5032178;28;19921;-75
2022/09/29 13:39:30;;;;;;;;;;;16.10;99.90;;;;;;5030645;28;19921;-76
2022/09/29 13:41:55;;;;;;;;;;;16.10;99.90;;;;;;5030559;28;20019;-75
2022/09/29 13:44:23;;;;;;;;;;;16.10;99.90;;;;;;5029899;28;19940;-75
2022/09/29 13:46:49;;;;;;;;;;;16.20;99.90;;;;;;5030407;28;19928;-75
2022/09/29 13:49:24;;;;;;;;;;;16.20;99.90;;;;;;5030556;28;19921;-73
2022/09/29 13:52:20;;;;;;;;;;;16.30;99.90;;;;;;5030169;28;20427;-75
2022/09/29 13:54:46;;;;;;;;;;;16.30;99.90;;;;;;5029824;28;19925;-75
2022/09/29 13:57:12;;;;;;;;;;;16.40;99.90;;;;;;5030211;28;19927;-75
2022/09/29 13:59:45;;;;;;;;;;;16.40;99.90;;;;;;5030168;28;20023;-73
2022/09/29 14:02:34;;;;;;;;;;;16.40;99.90;;;;;;5031069;28;19921;-73
2022/09/29 14:05:01;;;;;;;;;;;16.40;99.50;;;;;;5019327;28;19921;-73
2022/09/29 14:07:35;;;;;;;;;;;16.30;99.70;;;;;;5030818;28;19942;-76
2022/09/29 14:10:12;;;;;;;;;;;16.30;99.70;;;;;;5030179;28;20333;-74
2022/09/29 14:12:39;;;;;;;;;;;16.30;99.00;;;;;;5030675;28;19917;-71
2022/09/29 14:15:06;;;;;;;;;;;16.20;99.10;;;;;;5030326;28;19921;-73
2022/09/29 14:17:37;;;;;;;;;;;16.20;99.30;;;;;;5029677;28;19921;-71
2022/09/29 14:20:08;;;;;;;;;;;16.20;99.30;;;;;;5031117;28;19972;-72
2022/09/29 14:22:34;;;;;;;;;;;16.20;99.40;;;;;;5029464;28;19925;-70
2022/09/29 14:25:09;;;;;;;;;;;16.20;99.90;;;;;;5030891;28;19921;-70
2022/09/29 14:27:49;;;;;;;;;;;16.20;99.90;;;;;;5029360;28;20003;-72
2022/09/29 14:30:17;;;;;;;;;;;16.20;99.90;;;;;;5030963;28;19927;-77
2022/09/29 14:33:00;;;;;;;;;;;16.00;99.90;;;;;;5029075;28;19921;-72
2022/09/29 14:35:33;;;;;;;;;;;15.90;99.90;;;;;;5029638;28;19924;-75
2022/09/29 14:37:58;;;;;;;;;;;15.80;99.90;;;;;;5029708;28;19967;-73
2022/09/29 14:40:27;;;;;;;;;;;15.70;99.90;;;;;;5029181;28;20306;-74